Time;durP1;ratioP1;P1;durP2;ratioP2;P2;SDS_P1;SDS_P2;PMS_P1;PMS_P2;Temp;Humidity;BMP_temperature;BMP_pressure;BME280_temperature;BME280_humidity;BME280_pressure;Samples;Min_cycle;Max_cycle;Signal;HPM_P1;HPM_P2
2024/01/09 00:00:38;;;;;;;0.55;0.55;;;;;;;0.09;64.13;101790.94;4879522;29;20439;-85
2024/01/09 00:03:04;;;;;;;1.58;1.48;;;;;;;0.22;63.67;101795.53;4879485;29;20438;-85
2024/01/09 00:05:29;;;;;;;0.30;0.30;;;;;;;0.23;63.36;101798.06;4880564;29;20431;-85
2024/01/09 00:07:55;;;;;;;0.30;0.30;;;;;;;0.04;63.63;101812.91;4894719;29;20494;-84
2024/01/09 00:10:20;;;;;;;0.30;0.30;;;;;;;-0.20;63.69;101826.22;4885114;29;20392;-85
2024/01/09 00:12:46;;;;;;;0.40;0.40;;;;;;;-0.29;64.33;101818.84;4883758;29;20463;-84
2024/01/09 00:15:13;;;;;;;0.30;0.30;;;;;;;-0.27;64.22;101822.19;4882854;29;20395;-85
2024/01/09 00:17:40;;;;;;;0.25;0.25;;;;;;;-0.33;64.27;101825.94;4880048;29;20420;-85
2024/01/09 00:20:06;;;;;;;0.50;0.50;;;;;;;0.08;63.37;101827.50;4880918;29;20915;-84
2024/01/09 00:22:32;;;;;;;0.40;0.40;;;;;;;-0.11;63.97;101832.75;4882430;29;20407;-85
2024/01/09 00:24:57;;;;;;;0.20;0.20;;;;;;;-0.13;63.76;101839.81;4881582;29;20485;-86
2024/01/09 00:27:23;;;;;;;0.20;0.20;;;;;;;-0.06;63.87;101838.59;4882848;29;20982;-84
2024/01/09 00:29:49;;;;;;;0.20;0.20;;;;;;;-0.05;63.62;101848.94;4896497;29;20452;-83
2024/01/09 00:32:14;;;;;;;0.20;0.20;;;;;;;-0.26;64.13;101852.56;4879907;29;20395;-85
2024/01/09 00:34:41;;;;;;;0.40;0.40;;;;;;;-0.34;64.39;101863.34;4882950;29;20763;-82
2024/01/09 00:37:06;;;;;;;1.10;1.10;;;;;;;-0.18;64.34;101863.50;4886505;29;20430;-85
2024/01/09 00:39:32;;;;;;;0.30;0.30;;;;;;;-0.49;64.50;101867.50;4883293;29;20455;-84
2024/01/09 00:41:57;;;;;;;0.10;0.10;;;;;;;-0.50;64.61;101878.84;4881052;29;20875;-83
2024/01/09 00:44:23;;;;;;;0.47;0.47;;;;;;;-0.59;64.90;101884.47;4881105;29;21240;-87
2024/01/09 00:46:48;;;;;;;0.30;0.30;;;;;;;-0.53;64.48;101883.34;4879055;29;20411;-86
2024/01/09 00:49:14;;;;;;;1.57;0.60;;;;;;;-0.27;64.30;101882.13;4877690;29;20494;-84
2024/01/09 00:51:40;;;;;;;0.90;0.73;;;;;;;-0.43;64.02;101895.88;4877165;29;20410;-85
2024/01/09 00:54:05;;;;;;;0.63;0.37;;;;;;;-0.57;64.54;101900.88;4874970;29;20767;-86
2024/01/09 00:56:31;;;;;;;1.20;0.70;;;;;;;-0.77;65.02;101905.19;4887073;29;20431;-84
2024/01/09 00:58:57;;;;;;;1.20;0.80;;;;;;;-0.56;64.46;101901.69;4878950;29;20970;-83
2024/01/09 01:01:22;;;;;;;0.20;0.20;;;;;;;-0.54;64.10;101911.16;4878860;29;20436;-84
2024/01/09 01:03:48;;;;;;;0.80;0.80;;;;;;;-0.46;64.27;101906.44;4878188;29;20481;-86
2024/01/09 01:06:13;;;;;;;0.30;0.30;;;;;;;-0.51;63.95;101911.00;4893398;29;20965;-83
2024/01/09 01:08:39;;;;;;;1.00;0.90;;;;;;;-0.61;64.72;101913.19;4878540;29;20463;-85
2024/01/09 01:11:11;;;;;;;0.50;0.50;;;;;;;-0.74;64.67;101921.59;4876007;29;20819;-87
2024/01/09 01:13:36;;;;;;;0.20;0.20;;;;;;;-0.80;64.39;101926.16;4877672;29;20412;-84
2024/01/09 01:16:02;;;;;;;0.50;0.38;;;;;;;-0.76;64.46;101924.25;4877638;29;20411;-85
2024/01/09 01:18:27;;;;;;;0.40;0.30;;;;;;;-0.67;63.87;101934.25;4876622;29;20423;-85
2024/01/09 01:20:53;;;;;;;0.43;0.37;;;;;;;-0.57;64.23;101936.50;4876747;29;20899;-86
2024/01/09 01:23:18;;;;;;;0.70;0.70;;;;;;;-0.72;64.08;101933.66;4874837;29;20415;-88
2024/01/09 01:25:44;;;;;;;0.47;0.30;;;;;;;-0.68;63.83;101937.78;4876200;29;20463;-85
2024/01/09 01:28:10;;;;;;;0.43;0.30;;;;;;;-0.83;64.06;101939.31;4876239;29;20432;-85
2024/01/09 01:30:35;;;;;;;0.40;0.40;;;;;;;-1.29;64.63;101938.63;4876349;29;20455;-85
2024/01/09 01:33:02;;;;;;;0.68;0.68;;;;;;;-1.27;64.80;101949.81;4892580;29;20403;-85
2024/01/09 01:35:27;;;;;;;1.00;0.90;;;;;;;-1.19;65.22;101939.97;4876054;29;20415;-85
2024/01/09 01:37:53;;;;;;;0.45;0.38;;;;;;;-0.93;64.66;101945.81;4875018;29;20416;-84
2024/01/09 01:40:19;;;;;;;2.10;1.10;;;;;;;-0.86;64.30;101960.25;4876344;29;20400;-85
2024/01/09 01:42:44;;;;;;;1.00;0.90;;;;;;;-1.13;64.73;101961.41;4876709;29;20396;-85
2024/01/09 01:45:16;;;;;;;0.30;0.30;;;;;;;-1.35;64.57;101957.94;4875863;29;20479;-84
2024/01/09 01:47:46;;;;;;;0.40;0.40;;;;;;;-1.31;64.85;101973.44;4875734;29;20482;-85
2024/01/09 01:50:13;;;;;;;0.50;0.30;;;;;;;-1.51;65.07;101971.59;4877065;29;20403;-83
2024/01/09 01:52:41;;;;;;;3.55;1.27;;;;;;;-1.37;64.58;101984.91;4876312;29;20400;-84
2024/01/09 01:55:09;;;;;;;0.95;0.85;;;;;;;-1.74;65.07;101986.38;4890432;29;20396;-83
2024/01/09 01:57:36;;;;;;;0.25;0.25;;;;;;;-1.73;65.63;101988.03;4877283;29;20483;-82
2024/01/09 02:00:02;;;;;;;0.57;0.30;;;;;;;-2.10;66.08;101997.25;4874927;29;20388;-84
2024/01/09 02:02:29;;;;;;;0.52;0.30;;;;;;;-1.93;65.86;102005.28;4875113;29;20486;-85
2024/01/09 02:04:55;;;;;;;0.60;0.32;;;;;;;-1.47;65.37;102004.41;4873822;29;20400;-84
2024/01/09 02:07:23;;;;;;;0.90;0.68;;;;;;;-1.47;64.97;102005.25;4873554;29;20396;-84
2024/01/09 02:09:51;;;;;;;1.08;0.93;;;;;;;-1.65;64.40;102024.16;4873436;29;20407;-84
2024/01/09 02:12:17;;;;;;;0.83;0.47;;;;;;;-1.73;64.65;102009.72;4874444;29;20407;-86
2024/01/09 02:14:43;;;;;;;0.57;0.30;;;;;;;-1.87;65.40;102012.00;4876718;29;20392;-85
2024/01/09 02:17:08;;;;;;;0.38;0.28;;;;;;;-1.46;64.24;102016.50;4875102;29;20423;-85
2024/01/09 02:19:36;;;;;;;1.20;0.50;;;;;;;-1.93;64.55;102025.19;4873348;29;20880;-84
2024/01/09 02:22:02;;;;;;;0.80;0.40;;;;;;;-1.86;64.98;102020.63;4873065;29;20931;-85
2024/01/09 02:24:27;;;;;;;1.17;0.70;;;;;;;-1.85;64.86;102027.53;4872521;29;20412;-87
2024/01/09 02:27:05;;;;;;;1.23;0.77;;;;;;;-1.85;65.12;102028.38;4873836;29;20518;-87
2024/01/09 02:29:33;;;;;;;0.82;0.60;;;;;;;-1.92;64.35;102026.91;4871601;29;20459;-86
2024/01/09 02:32:00;;;;;;;1.40;0.82;;;;;;;-1.83;65.05;102041.31;4871839;29;20419;-87
2024/01/09 02:34:26;;;;;;;0.80;0.60;;;;;;;-1.78;64.38;102037.63;4873417;29;20451;-87
2024/01/09 02:36:52;;;;;;;1.00;0.73;;;;;;;-2.04;64.93;102035.97;4874169;29;20844;-88
2024/01/09 02:39:18;;;;;;;1.13;0.65;;;;;;;-2.04;64.59;102043.78;4874567;29;20404;-86
2024/01/09 02:41:45;;;;;;;1.13;0.50;;;;;;;-1.83;64.07;102039.53;4884492;29;20402;-84
2024/01/09 02:44:11;;;;;;;0.98;0.77;;;;;;;-2.18;64.23;102035.63;4874998;29;20411;-86
2024/01/09 02:46:37;;;;;;;1.08;0.95;;;;;;;-2.15;63.94;102049.34;4875400;29;20746;-86
2024/01/09 02:49:02;;;;;;;0.63;0.40;;;;;;;-2.16;64.35;102037.28;4875746;29;20491;-86
2024/01/09 02:51:30;;;;;;;0.47;0.47;;;;;;;-1.98;63.61;102050.50;4876083;29;20785;-85
2024/01/09 02:53:56;;;;;;;0.68;0.38;;;;;;;-2.15;64.06;102044.16;4876062;29;20400;-87
2024/01/09 02:56:22;;;;;;;0.93;0.63;;;;;;;-2.10;63.87;102043.16;4874735;29;20407;-86
2024/01/09 02:58:48;;;;;;;1.15;1.05;;;;;;;-2.44;64.76;102041.75;4878775;29;20487;-83
2024/01/09 03:01:14;;;;;;;0.80;0.70;;;;;;;-2.07;64.12;102058.63;4882760;29;20829;-84
2024/01/09 03:03:39;;;;;;;1.50;1.40;;;;;;;-2.17;63.73;102055.53;4875355;29;20388;-85
2024/01/09 03:06:05;;;;;;;1.33;1.23;;;;;;;-2.43;64.05;102056.41;4872639;29;20410;-85
2024/01/09 03:08:30;;;;;;;0.85;0.50;;;;;;;-2.43;64.09;102059.00;4873451;29;20391;-87
2024/01/09 03:10:56;;;;;;;0.73;0.47;;;;;;;-2.65;64.44;102077.91;4873741;29;20797;-85
2024/01/09 03:13:21;;;;;;;0.68;0.55;;;;;;;-2.72;64.79;102069.50;4875348;29;20403;-87
2024/01/09 03:15:47;;;;;;;0.43;0.30;;;;;;;-2.62;65.37;102076.97;4873946;29;20416;-86
2024/01/09 03:18:14;;;;;;;1.20;1.10;;;;;;;-2.54;64.52;102077.56;4874556;29;20420;-84
2024/01/09 03:20:40;;;;;;;0.30;0.28;;;;;;;-2.58;64.24;102081.16;4879050;29;20435;-86
2024/01/09 03:23:05;;;;;;;0.30;0.30;;;;;;;-2.62;63.82;102085.59;4879987;29;20392;-86
2024/01/09 03:25:31;;;;;;;0.50;0.40;;;;;;;-2.62;64.47;102093.41;4880330;29;20479;-87
2024/01/09 03:27:57;;;;;;;0.55;0.55;;;;;;;-2.65;64.38;102096.09;4879231;29;20428;-85
2024/01/09 03:30:22;;;;;;;0.40;0.40;;;;;;;-2.59;63.89;102105.41;4891039;29;20507;-89
2024/01/09 03:32:48;;;;;;;1.20;0.65;;;;;;;-2.81;63.81;102107.88;4875823;29;20404;-87
2024/01/09 03:35:14;;;;;;;1.23;1.00;;;;;;;-2.81;63.68;102118.25;4877613;29;20396;-86
2024/01/09 03:37:39;;;;;;;1.30;0.70;;;;;;;-2.59;63.40;102124.47;4876332;29;20451;-83
2024/01/09 03:40:06;;;;;;;0.80;0.80;;;;;;;-3.11;63.83;102118.31;4874553;29;21006;-85
2024/01/09 03:42:33;;;;;;;0.70;0.40;;;;;;;-3.22;64.96;102128.16;4875724;29;20888;-83
2024/01/09 03:44:59;;;;;;;1.65;1.60;;;;;;;-2.79;64.35;102138.06;4878990;29;20407;-84
2024/01/09 03:47:24;;;;;;;1.42;0.55;;;;;;;-2.61;63.74;102138.38;4882427;29;20404;-86
2024/01/09 03:49:50;;;;;;;1.43;0.93;;;;;;;-3.04;64.77;102148.38;4881350;29;20396;-85
2024/01/09 03:52:16;;;;;;;1.40;1.20;;;;;;;-2.80;63.86;102146.75;4878789;29;20412;-87
2024/01/09 03:54:41;;;;;;;2.15;1.65;;;;;;;-2.93;64.17;102145.44;4875063;29;20496;-85
2024/01/09 03:57:08;;;;;;;0.98;0.40;;;;;;;-2.86;64.77;102143.47;4872113;29;20419;-87
2024/01/09 03:59:33;;;;;;;1.20;0.50;;;;;;;-2.82;63.72;102166.72;4879705;29;20399;-86
2024/01/09 04:01:59;;;;;;;0.60;0.40;;;;;;;-2.98;63.73;102171.50;4875900;29;20408;-88
2024/01/09 04:04:25;;;;;;;1.17;0.40;;;;;;;-3.17;64.37;102179.03;4881240;29;20387;-87
2024/01/09 04:06:50;;;;;;;1.60;1.50;;;;;;;-2.95;64.41;102161.06;4884903;29;20400;-88
2024/01/09 04:09:16;;;;;;;0.37;0.37;;;;;;;-3.41;64.32;102174.53;4891706;29;20431;-87
2024/01/09 04:11:45;;;;;;;0.80;0.50;;;;;;;-3.24;64.17;102187.00;4875472;29;20411;-87
2024/01/09 04:14:11;;;;;;;0.60;0.60;;;;;;;-3.40;64.99;102169.31;4878940;29;20443;-89
2024/01/09 04:16:37;;;;;;;0.30;0.30;;;;;;;-3.20;64.20;102180.84;4877645;29;20412;-89
2024/01/09 04:19:02;;;;;;;0.30;0.30;;;;;;;-3.18;64.01;102179.91;4876848;29;20411;-87
2024/01/09 04:21:30;;;;;;;1.00;0.50;;;;;;;-3.15;64.13;102186.72;4874266;29;20396;-87
2024/01/09 04:23:57;;;;;;;0.55;0.55;;;;;;;-3.26;63.88;102192.22;4875235;29;20418;-88
2024/01/09 04:26:25;;;;;;;1.30;1.20;;;;;;;-3.25;63.77;102199.13;4874234;29;20404;-87
2024/01/09 04:28:51;;;;;;;9.40;0.63;;;;;;;-3.14;63.46;102204.00;4874545;29;20392;-88
2024/01/09 04:31:17;;;;;;;0.22;0.22;;;;;;;-3.01;63.23;102194.09;4891766;29;20451;-89
2024/01/09 04:33:43;;;;;;;0.43;0.43;;;;;;;-2.84;63.04;102204.84;4878485;29;20407;-87
2024/01/09 04:36:16;;;;;;;0.32;0.30;;;;;;;-3.14;63.52;102210.03;4878838;29;20439;-87
2024/01/09 04:38:41;;;;;;;0.17;0.17;;;;;;;-2.98;63.26;102213.03;4879215;29;20415;-87
2024/01/09 04:41:07;;;;;;;0.20;0.20;;;;;;;-2.83;62.99;102216.91;4879352;29;20804;-86
2024/01/09 04:43:32;;;;;;;0.50;0.50;;;;;;;-2.82;62.53;102213.41;4880500;29;20745;-88
2024/01/09 04:45:58;;;;;;;0.30;0.30;;;;;;;-2.98;62.33;102228.59;4896739;29;20702;-88
2024/01/09 04:48:24;;;;;;;0.30;0.30;;;;;;;-3.39;63.31;102228.03;4891514;29;20412;-88
2024/01/09 04:50:49;;;;;;;0.37;0.30;;;;;;;-3.29;63.36;102234.66;4877211;29;20407;-86
2024/01/09 04:53:15;;;;;;;1.50;1.30;;;;;;;-3.12;62.86;102230.75;4890756;29;20587;-84
2024/01/09 04:55:41;;;;;;;0.30;0.30;;;;;;;-3.42;63.15;102240.22;4877405;29;20491;-83
2024/01/09 04:58:07;;;;;;;0.60;0.50;;;;;;;-3.10;62.64;102236.72;4892632;29;20458;-86
2024/01/09 05:00:33;;;;;;;1.53;1.43;;;;;;;-2.97;61.92;102237.22;4877949;29;20486;-87
2024/01/09 05:02:59;;;;;;;1.40;1.30;;;;;;;-2.94;62.26;102244.91;4892019;29;20404;-87
2024/01/09 05:05:24;;;;;;;0.50;0.50;;;;;;;-2.85;61.94;102255.03;4895046;29;20400;-85
2024/01/09 05:07:50;;;;;;;1.40;1.30;;;;;;;-2.89;61.75;102259.47;4887921;29;20880;-88
2024/01/09 05:10:15;;;;;;;0.40;0.40;;;;;;;-3.28;62.48;102264.91;4885517;29;20412;-85
2024/01/09 05:12:41;;;;;;;0.37;0.37;;;;;;;-3.04;62.61;102267.69;4893663;29;20402;-84
2024/01/09 05:15:08;;;;;;;0.10;0.10;;;;;;;-2.92;62.40;102256.09;4880451;29;20407;-86
2024/01/09 05:17:33;;;;;;;4.80;1.20;;;;;;;-2.69;61.56;102281.38;4876906;29;20451;-89
2024/01/09 05:19:59;;;;;;;0.80;0.80;;;;;;;-3.10;61.69;102276.50;4878566;29;20444;-85
2024/01/09 05:22:26;;;;;;;0.40;0.40;;;;;;;-2.95;62.14;102279.56;4879513;29;20407;-84
2024/01/09 05:24:51;;;;;;;0.32;0.30;;;;;;;-2.82;62.23;102267.06;4879469;29;20888;-83
2024/01/09 05:27:19;;;;;;;0.57;0.57;;;;;;;-2.78;61.70;102279.06;4890329;29;20402;-84
2024/01/09 05:29:45;;;;;;;1.80;1.70;;;;;;;-2.62;61.55;102275.09;4886827;29;20933;-84
2024/01/09 05:32:10;;;;;;;0.60;0.60;;;;;;;-2.95;62.19;102288.19;4885850;29;20473;-85
2024/01/09 05:34:36;;;;;;;0.20;0.20;;;;;;;-2.83;62.01;102294.75;4874198;29;20437;-85
2024/01/09 05:37:02;;;;;;;0.40;0.40;;;;;;;-2.78;61.58;102295.47;4878325;29;20470;-82
2024/01/09 05:39:28;;;;;;;0.80;0.80;;;;;;;-2.75;61.51;102308.38;4879550;29;20399;-85
2024/01/09 05:41:55;;;;;;;0.10;0.10;;;;;;;-2.68;61.51;102309.06;4893153;29;20400;-87
2024/01/09 05:44:21;;;;;;;0.30;0.30;;;;;;;-2.54;61.37;102300.84;4879229;29;20418;-86
2024/01/09 05:46:50;;;;;;;0.33;0.33;;;;;;;-2.79;61.12;102309.38;4878910;29;20482;-84
2024/01/09 05:49:15;;;;;;;0.40;0.40;;;;;;;-2.82;61.16;102308.59;4878149;29;20547;-86
2024/01/09 05:51:41;;;;;;;4.70;0.80;;;;;;;-3.07;61.79;102310.13;4894667;29;20494;-84
2024/01/09 05:54:07;;;;;;;0.17;0.17;;;;;;;-3.02;62.15;102325.56;4894289;29;20399;-84
2024/01/09 05:56:32;;;;;;;0.20;0.20;;;;;;;-2.72;61.61;102323.00;4894437;29;20456;-85
2024/01/09 05:59:00;;;;;;;1.27;1.17;;;;;;;-2.77;61.16;102324.91;4877692;29;20412;-86
2024/01/09 06:01:26;;;;;;;0.80;0.80;;;;;;;-2.85;61.39;102322.50;4878787;29;20435;-85
2024/01/09 06:03:51;;;;;;;0.38;0.38;;;;;;;-2.67;61.26;102331.50;4894011;29;20431;-85
2024/01/09 06:06:21;;;;;;;0.20;0.20;;;;;;;-2.90;61.56;102333.03;4892610;29;20414;-84
2024/01/09 06:08:49;;;;;;;2.65;1.35;;;;;;;-2.83;61.75;102343.22;4892389;29;20765;-84
2024/01/09 06:11:14;;;;;;;0.20;0.20;;;;;;;-3.12;62.19;102357.84;4877059;29;20756;-86
2024/01/09 06:13:40;;;;;;;0.40;0.40;;;;;;;-3.00;62.41;102356.69;4877708;29;20481;-84
2024/01/09 06:16:09;;;;;;;1.00;1.00;;;;;;;-2.89;61.97;102352.88;4878630;29;20942;-82
2024/01/09 06:18:34;;;;;;;0.20;0.20;;;;;;;-3.15;62.14;102378.66;4877812;29;20471;-84
2024/01/09 06:21:03;;;;;;;0.30;0.30;;;;;;;-3.00;61.76;102367.06;4894231;29;20404;-84
2024/01/09 06:23:28;;;;;;;0.30;0.20;;;;;;;-2.84;61.60;102376.13;4894315;29;20403;-85
2024/01/09 06:26:01;;;;;;;1.30;0.88;;;;;;;-3.18;61.87;102374.41;4879153;29;20448;-86
2024/01/09 06:28:27;;;;;;;0.32;0.22;;;;;;;-3.14;61.91;102389.00;4895503;29;20403;-84
2024/01/09 06:30:53;;;;;;;0.20;0.20;;;;;;;-3.15;62.41;102389.91;4878202;29;20791;-85
2024/01/09 06:33:18;;;;;;;0.47;0.40;;;;;;;-2.98;61.64;102394.66;4892316;29;20467;-86
2024/01/09 06:35:44;;;;;;;0.40;0.30;;;;;;;-2.76;61.28;102402.69;4878560;29;20467;-85
2024/01/09 06:38:09;;;;;;;1.90;1.70;;;;;;;-2.87;61.04;102402.13;4877689;29;20423;-84
2024/01/09 06:40:35;;;;;;;0.40;0.20;;;;;;;-3.14;61.19;102404.56;4877447;29;20403;-85
2024/01/09 06:43:01;;;;;;;0.70;0.70;;;;;;;-3.08;61.80;102412.22;4878050;29;20496;-86
2024/01/09 06:45:26;;;;;;;0.40;0.40;;;;;;;-3.12;61.23;102420.09;4879199;29;20463;-85
2024/01/09 06:47:55;;;;;;;0.53;0.53;;;;;;;-3.08;60.97;102424.31;4877789;29;20407;-84
2024/01/09 06:50:20;;;;;;;0.30;0.30;;;;;;;-2.83;61.14;102421.06;4897729;29;20420;-82
2024/01/09 06:52:46;;;;;;;0.90;0.70;;;;;;;-3.02;61.26;102441.47;4886128;29;20793;-84
2024/01/09 06:55:12;;;;;;;1.00;0.90;;;;;;;-3.00;61.17;102447.47;4877131;29;20415;-85
2024/01/09 06:57:37;;;;;;;1.77;1.57;;;;;;;-3.15;61.33;102443.50;4876493;29;20514;-84
2024/01/09 07:00:06;;;;;;;1.80;1.27;;;;;;;-3.21;60.94;102457.47;4876353;29;20419;-85
2024/01/09 07:02:32;;;;;;;0.30;0.20;;;;;;;-3.22;61.72;102449.75;4878684;29;20808;-83
2024/01/09 07:05:01;;;;;;;1.40;1.00;;;;;;;-2.86;60.74;102460.06;4877126;29;20404;-84
2024/01/09 07:07:32;;;;;;;0.22;0.22;;;;;;;-2.81;60.42;102466.00;4878785;29;20392;-84
2024/01/09 07:09:58;;;;;;;0.30;0.30;;;;;;;-2.88;60.15;102470.53;4879132;29;20419;-83
2024/01/09 07:12:27;;;;;;;1.23;1.15;;;;;;;-2.87;60.23;102469.59;4888862;29;20404;-82
2024/01/09 07:14:59;;;;;;;0.50;0.50;;;;;;;-2.96;59.91;102482.81;4881747;29;20410;-84
2024/01/09 07:17:25;;;;;;;0.40;0.40;;;;;;;-2.88;60.68;102499.91;4879222;29;20491;-83
2024/01/09 07:19:53;;;;;;;1.40;0.60;;;;;;;-2.75;59.96;102499.59;4893240;29;20424;-84
2024/01/09 07:22:22;;;;;;;0.38;0.30;;;;;;;-2.74;60.02;102507.34;4877524;29;20408;-82
2024/01/09 07:24:51;;;;;;;0.10;0.10;;;;;;;-2.73;59.92;102515.97;4877327;29;20499;-85
2024/01/09 07:27:23;;;;;;;1.45;1.35;;;;;;;-2.66;59.47;102511.50;4876338;29;20400;-84
2024/01/09 07:29:51;;;;;;;1.08;0.70;;;;;;;-2.54;59.72;102526.72;4891248;29;20423;-86
2024/01/09 07:32:23;;;;;;;0.40;0.40;;;;;;;-2.66;59.75;102532.25;4875073;29;20403;-85
2024/01/09 07:34:58;;;;;;;0.22;0.22;;;;;;;-2.56;59.56;102551.88;4878209;29;20411;-83
2024/01/09 07:37:27;;;;;;;0.77;0.77;;;;;;;-2.86;59.87;102563.88;4877632;29;20422;-82
2024/01/09 07:39:57;;;;;;;2.00;1.60;;;;;;;-2.80;60.29;102563.75;4891683;29;20414;-83
2024/01/09 07:42:25;;;;;;;1.90;1.20;;;;;;;-2.86;59.48;102577.72;4891531;29;20395;-82
2024/01/09 07:44:51;;;;;;;0.70;0.70;;;;;;;-2.85;59.57;102570.78;4876120;29;20554;-83
2024/01/09 07:47:22;;;;;;;1.35;1.25;;;;;;;-2.53;59.16;102570.81;4878144;29;20403;-85
2024/01/09 07:49:51;;;;;;;0.60;0.60;;;;;;;-2.71;59.38;102584.28;4877767;29;20460;-83
2024/01/09 07:52:24;;;;;;;0.20;0.20;;;;;;;-2.66;59.46;102585.03;4879434;29;20392;-84
2024/01/09 07:54:50;;;;;;;0.70;0.43;;;;;;;-2.39;58.89;102575.66;4880109;29;20963;-86
2024/01/09 07:57:18;;;;;;;0.25;0.15;;;;;;;-2.21;58.53;102589.06;4861693;29;20510;-83
2024/01/09 07:59:44;;;;;;;0.60;0.60;;;;;;;-2.39;58.69;102598.19;4878614;29;20795;-84
2024/01/09 08:02:09;;;;;;;0.30;0.30;;;;;;;-2.55;59.21;102603.75;4878055;29;20479;-86
2024/01/09 08:04:39;;;;;;;0.10;0.10;;;;;;;-2.24;58.97;102609.94;4897294;29;20406;-84
2024/01/09 08:07:06;;;;;;;0.20;0.20;;;;;;;-1.93;58.62;102620.34;4885951;29;20445;-85
2024/01/09 08:09:36;;;;;;;0.70;0.70;;;;;;;-2.20;58.54;102619.34;4885745;29;20450;-84
2024/01/09 08:12:02;;;;;;;0.30;0.30;;;;;;;-1.97;58.69;102629.13;4885768;29;20426;-85
2024/01/09 08:14:28;;;;;;;1.80;1.70;;;;;;;-1.87;58.15;102630.59;4901102;29;20483;-87
2024/01/09 08:16:56;;;;;;;0.35;0.35;;;;;;;-1.86;57.73;102640.06;4899387;29;20403;-86
2024/01/09 08:19:21;;;;;;;0.63;0.30;;;;;;;-2.01;58.22;102656.09;4883483;29;20457;-85
2024/01/09 08:21:47;;;;;;;0.50;0.33;;;;;;;-2.06;58.39;102647.56;4898411;29;20488;-83
2024/01/09 08:24:18;;;;;;;0.23;0.20;;;;;;;-1.84;57.89;102653.88;4900248;29;20492;-84
2024/01/09 08:26:47;;;;;;;0.40;0.40;;;;;;;-1.89;58.30;102660.09;4898802;29;20948;-83
2024/01/09 08:29:15;;;;;;;0.88;0.65;;;;;;;-1.91;58.28;102649.72;4896573;29;20414;-84
2024/01/09 08:31:47;;;;;;;0.38;0.32;;;;;;;-1.83;58.25;102660.78;4896366;29;20402;-85
2024/01/09 08:34:13;;;;;;;0.70;0.40;;;;;;;-1.79;57.93;102669.34;4881666;29;20413;-85
2024/01/09 08:36:42;;;;;;;0.73;0.43;;;;;;;-1.94;58.28;102668.03;4882485;29;20668;-84
2024/01/09 08:39:09;;;;;;;0.10;0.10;;;;;;;-2.13;58.74;102662.44;4881532;29;20843;-83
2024/01/09 08:41:35;;;;;;;1.10;1.10;;;;;;;-2.20;58.75;102672.13;4879418;29;20400;-82
2024/01/09 08:44:04;;;;;;;1.00;0.50;;;;;;;-1.99;58.70;102670.75;4882623;29;20399;-84
2024/01/09 08:46:30;;;;;;;0.47;0.47;;;;;;;-1.73;58.53;102674.38;4881266;29;20427;-85
2024/01/09 08:48:55;;;;;;;0.10;0.10;;;;;;;-1.52;58.03;102670.34;4896235;29;20392;-85
2024/01/09 08:51:21;;;;;;;0.33;0.33;;;;;;;-1.79;58.75;102674.56;4896599;29;20749;-85
2024/01/09 08:53:46;;;;;;;0.47;0.47;;;;;;;-1.77;58.35;102680.56;4880520;29;20392;-85
2024/01/09 08:56:12;;;;;;;0.23;0.23;;;;;;;-1.80;58.30;102685.84;4880941;29;20440;-86
2024/01/09 08:58:38;;;;;;;1.70;1.00;;;;;;;-1.82;58.91;102690.22;4881531;29;20451;-84
2024/01/09 09:01:03;;;;;;;0.50;0.50;;;;;;;-1.70;58.55;102679.50;4895629;29;20440;-83
2024/01/09 09:03:29;;;;;;;0.70;0.70;;;;;;;-1.85;58.92;102672.97;4880950;29;20780;-84
2024/01/09 09:05:56;;;;;;;0.30;0.30;;;;;;;-1.73;58.75;102675.25;4879597;29;20407;-84
2024/01/09 09:08:22;;;;;;;0.22;0.22;;;;;;;-1.83;58.91;102691.97;4890386;29;20440;-83
2024/01/09 09:10:48;;;;;;;0.43;0.43;;;;;;;-1.47;58.82;102694.47;4883477;29;20856;-84
2024/01/09 09:13:15;;;;;;;1.00;1.00;;;;;;;-1.30;58.14;102686.19;4897062;29;20414;-84
2024/01/09 09:15:41;;;;;;;0.40;0.30;;;;;;;-1.22;58.10;102686.81;4866768;29;20412;-84
2024/01/09 09:18:10;;;;;;;1.88;1.70;;;;;;;-1.30;58.03;102698.34;4895264;29;21106;-84
2024/01/09 09:20:36;;;;;;;0.60;0.30;;;;;;;-1.48;58.00;102710.13;4879093;29;20442;-85
2024/01/09 09:23:03;;;;;;;1.17;1.17;;;;;;;-1.43;58.08;102697.84;4879140;29;20391;-84
2024/01/09 09:25:28;;;;;;;0.40;0.40;;;;;;;-1.57;58.10;102699.09;4894133;29;20404;-84
2024/01/09 09:27:54;;;;;;;0.32;0.30;;;;;;;-1.48;57.95;102702.31;4886139;29;20432;-86
2024/01/09 09:30:20;;;;;;;0.32;0.32;;;;;;;-1.54;58.26;102696.38;4881589;29;20665;-85
2024/01/09 09:32:45;;;;;;;0.93;0.63;;;;;;;-1.62;58.11;102695.75;4878728;29;20430;-84
2024/01/09 09:35:11;;;;;;;0.20;0.20;;;;;;;-1.44;58.22;102709.13;4882274;29;20403;-85
2024/01/09 09:37:38;;;;;;;1.48;1.15;;;;;;;-1.75;58.51;102723.84;4882528;29;20466;-85
2024/01/09 09:40:05;;;;;;;0.30;0.30;;;;;;;-1.94;58.97;102718.25;4865106;29;20416;-85
2024/01/09 09:42:31;;;;;;;0.60;0.60;;;;;;;-1.88;59.22;102717.25;4884133;29;20830;-86
2024/01/09 09:45:01;;;;;;;1.00;0.90;;;;;;;-1.64;58.58;102718.34;4884750;29;20399;-85
2024/01/09 09:47:29;;;;;;;0.20;0.20;;;;;;;-1.85;58.83;102719.78;4882847;29;20427;-85
2024/01/09 09:49:56;;;;;;;0.75;0.75;;;;;;;-1.83;58.88;102727.53;4866400;29;20446;-85
2024/01/09 09:52:27;;;;;;;0.98;0.88;;;;;;;-1.99;59.24;102721.88;4882426;29;20416;-83
2024/01/09 09:54:55;;;;;;;0.57;0.57;;;;;;;-2.37;60.12;102724.53;4882115;29;20895;-85
2024/01/09 09:57:21;;;;;;;0.95;0.85;;;;;;;-2.27;60.33;102722.53;4883417;29;20428;-85
2024/01/09 09:59:47;;;;;;;0.55;0.30;;;;;;;-1.97;59.45;102723.53;4883966;29;20396;-85
2024/01/09 10:02:24;;;;;;;0.40;0.30;;;;;;;-2.02;59.95;102735.78;4882480;29;20783;-87
2024/01/09 10:04:52;;;;;;;0.57;0.57;;;;;;;-2.09;59.32;102730.78;4881600;29;20402;-85
2024/01/09 10:07:22;;;;;;;0.40;0.40;;;;;;;-2.12;60.84;102736.91;4879174;29;20404;-85
2024/01/09 10:09:53;;;;;;;0.60;0.60;;;;;;;-2.34;60.65;102720.97;4894466;29;20403;-85
2024/01/09 10:12:22;;;;;;;0.55;0.38;;;;;;;-2.24;60.64;102737.22;4878376;29;20407;-87
2024/01/09 10:15:08;;;;;;;0.60;0.60;;;;;;;-1.80;59.96;102730.03;4879115;29;20922;-85
2024/01/09 10:17:35;;;;;;;0.63;0.43;;;;;;;-1.52;59.49;102735.34;4893623;29;21002;-85
2024/01/09 10:20:03;;;;;;;1.35;0.90;;;;;;;-1.38;59.26;102738.44;4879585;29;20414;-85
2024/01/09 10:22:31;;;;;;;0.70;0.40;;;;;;;-1.39;59.15;102725.47;4894388;29;20483;-86
2024/01/09 10:24:57;;;;;;;0.47;0.30;;;;;;;-1.37;59.23;102728.88;4881948;29;20395;-85
2024/01/09 10:27:23;;;;;;;0.70;0.60;;;;;;;-1.62;59.24;102736.50;4878306;29;20415;-85
2024/01/09 10:29:48;;;;;;;0.50;0.40;;;;;;;-1.57;59.09;102743.31;4881532;29;20416;-85
2024/01/09 10:32:14;;;;;;;0.13;0.13;;;;;;;-1.59;59.14;102731.22;4895145;29;20403;-84
2024/01/09 10:34:40;;;;;;;0.30;0.30;;;;;;;-1.62;59.52;102732.16;4878165;29;20436;-86
2024/01/09 10:37:11;;;;;;;1.52;0.63;;;;;;;-1.62;58.90;102737.38;4882176;29;20427;-86
2024/01/09 10:39:38;;;;;;;0.20;0.20;;;;;;;-1.60;59.57;102740.78;4895951;29;20476;-85
2024/01/09 10:42:09;;;;;;;0.47;0.47;;;;;;;-1.46;59.19;102753.41;4894888;29;20407;-84
2024/01/09 10:44:38;;;;;;;0.20;0.20;;;;;;;-1.24;59.15;102755.41;4882160;29;20396;-85
2024/01/09 10:47:04;;;;;;;0.40;0.40;;;;;;;-1.43;59.36;102748.09;4883170;29;20411;-85
2024/01/09 10:49:31;;;;;;;0.40;0.40;;;;;;;-1.41;59.04;102751.50;4895685;29;20482;-86
2024/01/09 10:51:59;;;;;;;0.35;0.35;;;;;;;-1.42;58.77;102759.38;4895148;29;20408;-84
2024/01/09 10:54:27;;;;;;;0.40;0.40;;;;;;;-1.21;59.14;102760.53;4883631;29;20409;-84
2024/01/09 10:56:54;;;;;;;0.50;0.50;;;;;;;-1.36;59.27;102760.06;4896503;29;20411;-85
2024/01/09 10:59:20;;;;;;;0.30;0.30;;;;;;;-1.28;58.76;102759.00;4894051;29;20392;-83
2024/01/09 11:01:46;;;;;;;0.30;0.30;;;;;;;-1.25;58.81;102758.91;4879861;29;20407;-84
2024/01/09 11:04:13;;;;;;;0.70;0.70;;;;;;;-1.25;58.84;102761.50;4864502;29;20476;-85
2024/01/09 11:06:41;;;;;;;0.50;0.50;;;;;;;-1.57;58.91;102753.72;4880809;29;20548;-84
2024/01/09 11:09:10;;;;;;;0.35;0.30;;;;;;;-1.48;58.80;102762.97;4895675;29;20411;-85
2024/01/09 11:11:37;;;;;;;1.05;0.98;;;;;;;-1.46;58.80;102761.22;4889064;29;20400;-83
2024/01/09 11:14:09;;;;;;;0.57;0.45;;;;;;;-1.85;59.01;102760.53;4878747;29;20836;-85
2024/01/09 11:16:42;;;;;;;1.27;1.17;;;;;;;-1.63;59.20;102753.00;4876428;29;20420;-83
2024/01/09 11:19:11;;;;;;;0.57;0.55;;;;;;;-1.49;58.73;102756.09;4891845;29;20423;-84
2024/01/09 11:21:37;;;;;;;0.50;0.35;;;;;;;-1.29;58.45;102752.09;4892406;29;20840;-84